createdAt,value
2017-05-16T00:00:46.801Z,0
2017-05-16T00:01:59.041Z,0
2017-05-16T00:03:11.273Z,0
2017-05-16T00:04:23.515Z,0
2017-05-16T00:05:36.111Z,0
2017-05-16T00:06:48.658Z,0
2017-05-16T00:08:00.005Z,0
2017-05-16T00:09:12.569Z,0
2017-05-16T00:10:24.793Z,0
2017-05-16T00:11:37.330Z,0
2017-05-16T00:12:49.865Z,0
2017-05-16T00:14:02.422Z,0
2017-05-16T00:15:14.916Z,0
2017-05-16T00:16:27.177Z,0
2017-05-16T00:17:39.695Z,0
2017-05-16T00:18:52.257Z,0
2017-05-16T00:20:04.837Z,0
2017-05-16T00:21:17.088Z,0
2017-05-16T00:22:29.375Z,0
2017-05-16T00:23:41.913Z,0
2017-05-16T00:24:54.470Z,0
2017-05-16T00:26:07.041Z,0
2017-05-16T00:27:19.262Z,0
2017-05-16T00:28:31.481Z,0
2017-05-16T00:29:44.022Z,0
2017-05-16T00:30:56.580Z,0
2017-05-16T00:32:09.110Z,0
2017-05-16T00:33:21.663Z,0
2017-05-16T00:34:34.211Z,0
2017-05-16T00:35:46.734Z,0
2017-05-16T00:36:59.033Z,0
2017-05-16T00:38:11.543Z,0
2017-05-16T00:39:23.796Z,0
2017-05-16T00:40:36.347Z,0
2017-05-16T00:41:48.884Z,0
2017-05-16T00:43:01.427Z,0
2017-05-16T00:44:13.679Z,0
2017-05-16T00:45:26.219Z,0
2017-05-16T00:46:38.501Z,0
2017-05-16T00:47:51.042Z,0
2017-05-16T00:49:03.566Z,0
2017-05-16T00:50:16.107Z,0
2017-05-16T00:51:28.631Z,0
2017-05-16T00:52:42.023Z,0
2017-05-16T00:53:54.265Z,0
2017-05-16T00:55:06.819Z,0
2017-05-16T00:56:19.364Z,0
2017-05-16T00:57:31.603Z,0
2017-05-16T00:58:43.881Z,0
2017-05-16T00:59:56.401Z,0
2017-05-16T01:01:08.923Z,0
2017-05-16T01:02:21.182Z,0
2017-05-16T01:03:33.711Z,0
2017-05-16T01:04:45.708Z,0
2017-05-16T01:05:58.231Z,0
2017-05-16T01:07:10.766Z,0
2017-05-16T01:08:23.288Z,0
2017-05-16T01:09:35.846Z,0
2017-05-16T01:10:48.378Z,0
2017-05-16T01:12:00.936Z,0
2017-05-16T01:13:13.483Z,0
2017-05-16T01:14:25.999Z,0
2017-05-16T01:15:38.545Z,0
2017-05-16T01:16:50.769Z,0
2017-05-16T01:18:03.315Z,0
2017-05-16T01:19:15.550Z,0
2017-05-16T01:20:27.779Z,0
2017-05-16T01:21:40.327Z,0
2017-05-16T01:22:52.850Z,0
2017-05-16T01:24:05.388Z,0
2017-05-16T01:25:17.638Z,0
2017-05-16T01:26:29.862Z,0
2017-05-16T01:27:42.401Z,0
2017-05-16T01:28:54.946Z,0
2017-05-16T01:30:07.451Z,0
2017-05-16T01:31:19.720Z,0
2017-05-16T01:32:31.987Z,0
2017-05-16T01:33:44.534Z,0
2017-05-16T01:34:56.775Z,0
2017-05-16T01:36:09.293Z,0
2017-05-16T01:37:21.526Z,0
2017-05-16T01:38:34.058Z,0
2017-05-16T01:39:46.288Z,0
2017-05-16T01:40:58.802Z,0
2017-05-16T01:42:11.376Z,0
2017-05-16T01:43:23.639Z,0
2017-05-16T01:44:36.202Z,0
2017-05-16T01:45:48.746Z,0
2017-05-16T01:47:01.514Z,0
2017-05-16T01:48:13.752Z,0
2017-05-16T01:49:26.284Z,0
2017-05-16T01:50:38.805Z,0
2017-05-16T01:51:51.341Z,0
2017-05-16T01:53:03.889Z,0
2017-05-16T01:54:16.435Z,0
2017-05-16T01:55:28.680Z,0
2017-05-16T01:56:41.223Z,0
2017-05-16T01:57:53.758Z,0
2017-05-16T01:59:06.331Z,0
2017-05-16T02:00:18.870Z,0
2017-05-16T02:01:30.807Z,0
2017-05-16T02:02:43.036Z,0
2017-05-16T02:03:55.586Z,0
2017-05-16T02:05:07.803Z,0
2017-05-16T02:06:20.348Z,0
2017-05-16T02:07:32.874Z,0
2017-05-16T02:08:45.440Z,0
2017-05-16T02:09:57.960Z,0
2017-05-16T02:11:10.161Z,0
2017-05-16T02:12:22.706Z,0
2017-05-16T02:13:35.266Z,0
2017-05-16T02:14:47.497Z,0
2017-05-16T02:16:00.061Z,0
2017-05-16T02:17:11.990Z,0
2017-05-16T02:18:24.538Z,0
2017-05-16T02:19:36.771Z,0
2017-05-16T02:20:49.295Z,0
2017-05-16T02:22:01.828Z,0
2017-05-16T02:23:14.067Z,0
2017-05-16T02:24:26.364Z,0
2017-05-16T02:25:38.558Z,0
2017-05-16T02:26:51.099Z,0
2017-05-16T02:28:03.656Z,0
2017-05-16T02:29:16.196Z,0
2017-05-16T02:30:28.437Z,0
2017-05-16T02:31:40.966Z,0
2017-05-16T02:32:53.185Z,0
2017-05-16T02:34:05.732Z,0
2017-05-16T02:35:18.268Z,0
2017-05-16T02:36:30.800Z,0
2017-05-16T02:37:43.369Z,0
2017-05-16T02:38:55.913Z,0
2017-05-16T02:40:07.854Z,0
2017-05-16T02:41:20.433Z,0
2017-05-16T02:42:32.670Z,0
2017-05-16T02:43:45.198Z,0
2017-05-16T02:44:57.729Z,0
2017-05-16T02:46:10.289Z,0
2017-05-16T02:47:22.812Z,0
2017-05-16T02:48:35.072Z,0
2017-05-16T02:49:47.602Z,0
2017-05-16T02:51:00.113Z,0
2017-05-16T02:52:12.345Z,0
2017-05-16T02:53:24.907Z,0
2017-05-16T02:54:37.433Z,0
2017-05-16T02:55:49.984Z,0
2017-05-16T02:57:02.530Z,0
2017-05-16T02:58:15.078Z,0
2017-05-16T02:59:27.323Z,5
2017-05-16T03:00:39.868Z,5
2017-05-16T03:01:52.403Z,5
2017-05-16T03:03:04.956Z,5
2017-05-16T03:04:17.183Z,5
2017-05-16T03:05:29.722Z,5
2017-05-16T03:06:42.248Z,5
2017-05-16T03:07:54.784Z,5
2017-05-16T03:09:07.660Z,10
2017-05-16T03:10:20.185Z,10
2017-05-16T03:11:32.726Z,10
2017-05-16T03:12:44.929Z,10
2017-05-16T03:13:57.490Z,15
2017-05-16T03:15:10.057Z,15
2017-05-16T03:16:22.615Z,20
2017-05-16T03:17:34.849Z,20
2017-05-16T03:18:47.445Z,25
2017-05-16T03:19:59.676Z,25
2017-05-16T03:21:12.199Z,30
2017-05-16T03:22:24.735Z,35
2017-05-16T03:23:37.340Z,35
2017-05-16T03:24:49.882Z,40
2017-05-16T03:26:02.407Z,40
2017-05-16T03:27:14.975Z,45
2017-05-16T03:28:27.491Z,45
2017-05-16T03:29:40.046Z,50
2017-05-16T03:30:52.512Z,55
2017-05-16T03:32:05.024Z,55
2017-05-16T03:33:17.257Z,60
2017-05-16T03:34:29.518Z,60
2017-05-16T03:35:42.042Z,65
2017-05-16T03:36:54.570Z,65
2017-05-16T03:38:07.117Z,70
2017-05-16T03:39:19.650Z,70
2017-05-16T03:40:31.879Z,75
2017-05-16T03:41:44.428Z,75
2017-05-16T03:42:56.949Z,75
2017-05-16T03:44:09.192Z,75
2017-05-16T03:45:21.713Z,75
2017-05-16T03:46:34.589Z,75
2017-05-16T03:47:47.153Z,80
2017-05-16T03:48:59.675Z,80
2017-05-16T03:50:12.200Z,80
2017-05-16T03:51:24.797Z,80
2017-05-16T03:52:37.034Z,85
2017-05-16T03:53:49.602Z,85
2017-05-16T03:55:02.130Z,90
2017-05-16T03:56:14.355Z,95
2017-05-16T03:57:26.616Z,105
2017-05-16T03:58:38.843Z,110
2017-05-16T03:59:50.464Z,115
2017-05-16T04:01:03.002Z,125
2017-05-16T04:02:15.547Z,130
2017-05-16T04:03:28.045Z,130
2017-05-16T04:04:40.257Z,135
2017-05-16T04:05:52.794Z,130
2017-05-16T04:07:05.339Z,130
2017-05-16T04:08:17.538Z,125
2017-05-16T04:09:29.735Z,125
2017-05-16T04:10:42.302Z,125
2017-05-16T04:11:54.540Z,125
2017-05-16T04:13:07.124Z,130
2017-05-16T04:14:19.639Z,130
2017-05-16T04:15:32.178Z,130
2017-05-16T04:16:44.731Z,130
2017-05-16T04:17:56.652Z,135
2017-05-16T04:19:09.477Z,135
2017-05-16T04:20:21.749Z,140
2017-05-16T04:21:34.292Z,140
2017-05-16T04:22:46.788Z,140
2017-05-16T04:23:59.325Z,140
2017-05-16T04:25:11.871Z,145
2017-05-16T04:26:24.427Z,145
2017-05-16T04:27:36.690Z,150
2017-05-16T04:28:49.222Z,155
2017-05-16T04:30:01.790Z,165
2017-05-16T04:31:14.051Z,170
2017-05-16T04:32:26.560Z,175
2017-05-16T04:33:39.106Z,180
2017-05-16T04:34:51.374Z,185
2017-05-16T04:36:04.262Z,190
2017-05-16T04:37:16.787Z,190
2017-05-16T04:38:29.301Z,195
2017-05-16T04:39:41.807Z,195
2017-05-16T04:40:54.051Z,200
2017-05-16T04:42:06.589Z,205
2017-05-16T04:43:19.112Z,215
2017-05-16T04:44:31.411Z,220
2017-05-16T04:45:43.636Z,225
2017-05-16T04:46:56.159Z,225
2017-05-16T04:48:08.705Z,230
2017-05-16T04:49:21.239Z,225
2017-05-16T04:50:33.770Z,225
2017-05-16T04:51:45.988Z,215
2017-05-16T04:52:58.512Z,205
2017-05-16T04:54:10.735Z,190
2017-05-16T04:55:22.668Z,180
2017-05-16T04:56:35.199Z,185
2017-05-16T04:57:47.760Z,190
2017-05-16T04:59:00.298Z,205
2017-05-16T05:00:12.287Z,215
2017-05-16T05:01:23.909Z,225
2017-05-16T05:02:36.472Z,230
2017-05-16T05:03:49.001Z,230
2017-05-16T05:05:01.522Z,225
2017-05-16T05:06:13.743Z,220
2017-05-16T05:07:26.006Z,220
2017-05-16T05:08:38.836Z,235
2017-05-16T05:09:51.377Z,225
2017-05-16T05:11:03.882Z,250
2017-05-16T05:12:16.135Z,270
2017-05-16T05:13:28.058Z,280
2017-05-16T05:14:40.592Z,285
2017-05-16T05:15:53.111Z,310
2017-05-16T05:17:05.670Z,335
2017-05-16T05:18:17.904Z,370
2017-05-16T05:19:30.443Z,390
2017-05-16T05:20:42.664Z,415
2017-05-16T05:21:55.190Z,440
2017-05-16T05:23:07.756Z,465
2017-05-16T05:24:19.698Z,485
2017-05-16T05:25:31.951Z,500
2017-05-16T05:26:44.166Z,510
2017-05-16T05:27:56.411Z,515
2017-05-16T05:29:08.955Z,515
2017-05-16T05:30:21.208Z,530
2017-05-16T05:31:33.757Z,530
2017-05-16T05:32:46.017Z,515
2017-05-16T05:33:58.523Z,505
2017-05-16T05:35:11.066Z,500
2017-05-16T05:36:23.308Z,500
2017-05-16T05:37:35.837Z,520
2017-05-16T05:38:48.379Z,540
2017-05-16T05:40:00.917Z,545
2017-05-16T05:41:13.166Z,570
2017-05-16T05:42:25.713Z,595
2017-05-16T05:43:38.259Z,600
2017-05-16T05:44:50.804Z,580
2017-05-16T05:46:03.634Z,580
2017-05-16T05:47:16.177Z,610
2017-05-16T05:48:28.071Z,625
2017-05-16T05:49:40.613Z,645
2017-05-16T05:50:53.156Z,645
2017-05-16T05:52:05.384Z,620
2017-05-16T05:53:17.625Z,600
2017-05-16T05:54:30.171Z,575
2017-05-16T05:55:42.671Z,555
2017-05-16T05:56:55.224Z,535
2017-05-16T05:58:07.780Z,520
2017-05-16T05:59:20.312Z,515
2017-05-16T06:00:32.851Z,510
2017-05-16T06:01:45.357Z,515
2017-05-16T06:02:57.930Z,510
2017-05-16T06:04:09.868Z,500
2017-05-16T06:05:22.095Z,500
2017-05-16T06:06:34.636Z,500
2017-05-16T06:07:46.885Z,505
2017-05-16T06:08:59.427Z,505
2017-05-16T06:10:11.967Z,510
2017-05-16T06:11:24.215Z,505
2017-05-16T06:12:36.768Z,505
2017-05-16T06:13:49.314Z,505
2017-05-16T06:15:01.910Z,475
2017-05-16T06:16:14.131Z,465
2017-05-16T06:17:26.379Z,490
2017-05-16T06:18:38.917Z,550
2017-05-16T06:19:51.186Z,695
2017-05-16T06:21:03.719Z,750
2017-05-16T06:22:15.977Z,850
2017-05-16T06:23:28.505Z,965
2017-05-16T06:24:40.741Z,950
2017-05-16T06:25:53.286Z,1100
2017-05-16T06:27:05.522Z,1305
2017-05-16T06:28:17.791Z,1280
2017-05-16T06:29:30.357Z,1340
2017-05-16T06:30:42.899Z,1365
2017-05-16T06:31:55.472Z,1340
2017-05-16T06:33:08.061Z,1275
2017-05-16T06:34:19.995Z,1370
2017-05-16T06:35:32.236Z,1385
2017-05-16T06:36:44.161Z,1325
2017-05-16T06:37:56.707Z,1270
2017-05-16T06:39:09.301Z,1190
2017-05-16T06:40:21.512Z,1100
2017-05-16T06:41:34.041Z,1070
2017-05-16T06:42:46.308Z,1040
2017-05-16T06:43:58.533Z,1030
2017-05-16T06:45:11.082Z,1005
2017-05-16T06:46:23.321Z,1010
2017-05-16T06:47:35.866Z,1010
2017-05-16T06:48:47.817Z,1020
2017-05-16T06:50:00.366Z,1030
2017-05-16T06:51:12.961Z,1025
2017-05-16T06:52:25.479Z,1015
2017-05-16T06:53:38.026Z,1010
2017-05-16T06:54:50.579Z,980
2017-05-16T06:56:02.820Z,935
2017-05-16T06:57:15.365Z,895
2017-05-16T06:58:27.586Z,860
2017-05-16T06:59:40.147Z,840
2017-05-16T07:00:52.676Z,825
2017-05-16T07:02:05.197Z,820
2017-05-16T07:03:17.434Z,825
2017-05-16T07:04:29.639Z,815
2017-05-16T07:05:41.885Z,815
2017-05-16T07:06:54.089Z,825
2017-05-16T07:08:06.631Z,845
2017-05-16T07:09:19.176Z,875
2017-05-16T07:10:31.796Z,905
2017-05-16T07:11:44.064Z,950
2017-05-16T07:12:56.617Z,975
2017-05-16T07:14:09.156Z,970
2017-05-16T07:15:21.656Z,995
2017-05-16T07:16:33.915Z,1025
2017-05-16T07:17:46.168Z,1010
2017-05-16T07:18:58.990Z,1030
2017-05-16T07:20:11.260Z,1055
2017-05-16T07:21:23.782Z,1100
2017-05-16T07:22:36.302Z,1150
2017-05-16T07:23:47.943Z,1240
2017-05-16T07:25:00.498Z,1345
2017-05-16T07:26:12.436Z,1460
2017-05-16T07:27:24.082Z,1460
2017-05-16T07:28:36.635Z,1575
2017-05-16T07:29:48.587Z,1560
2017-05-16T07:31:00.827Z,1490
2017-05-16T07:32:13.086Z,1490
2017-05-16T07:33:25.332Z,1500
2017-05-16T07:34:37.907Z,1470
2017-05-16T07:35:50.178Z,1495
2017-05-16T07:37:02.735Z,1480
2017-05-16T07:38:15.277Z,1425
2017-05-16T07:39:27.817Z,1420
2017-05-16T07:40:40.341Z,1500
2017-05-16T07:41:52.904Z,1520
2017-05-16T07:43:05.463Z,1565
2017-05-16T07:44:18.029Z,1645
2017-05-16T07:45:30.270Z,1505
2017-05-16T07:46:42.820Z,1485
2017-05-16T07:47:55.362Z,1515
2017-05-16T07:49:07.893Z,1530
2017-05-16T07:50:20.152Z,1510
2017-05-16T07:51:32.752Z,1510
2017-05-16T07:52:45.005Z,1515
2017-05-16T07:53:57.580Z,1555
2017-05-16T07:55:09.534Z,1505
2017-05-16T07:56:21.759Z,1570
2017-05-16T07:57:34.292Z,1730
2017-05-16T07:58:46.572Z,1950
2017-05-16T07:59:59.121Z,2025
2017-05-16T08:01:11.672Z,1970
2017-05-16T08:02:23.917Z,2030
2017-05-16T08:03:36.442Z,2365
2017-05-16T08:04:48.704Z,2365
2017-05-16T08:06:00.973Z,2010
2017-05-16T08:07:13.221Z,2440
2017-05-16T08:08:25.801Z,2470
2017-05-16T08:09:38.046Z,2180
2017-05-16T08:10:50.609Z,2150
2017-05-16T08:12:02.835Z,2120
2017-05-16T08:13:15.405Z,1975
2017-05-16T08:14:27.930Z,1885
2017-05-16T08:15:40.518Z,1865
2017-05-16T08:16:53.085Z,1760
2017-05-16T08:18:05.343Z,1655
2017-05-16T08:19:17.604Z,1565
2017-05-16T08:20:30.177Z,1520
2017-05-16T08:21:42.431Z,1570
2017-05-16T08:22:55.029Z,1605
2017-05-16T08:24:07.616Z,1530
2017-05-16T08:25:20.168Z,1470
2017-05-16T08:26:32.714Z,1435
2017-05-16T08:27:44.658Z,1385
2017-05-16T08:28:57.208Z,1420
2017-05-16T08:30:09.450Z,1495
2017-05-16T08:31:21.694Z,1605
2017-05-16T08:32:33.940Z,1670
2017-05-16T08:33:46.507Z,1620
2017-05-16T08:34:59.057Z,1530
2017-05-16T08:36:11.634Z,1465
2017-05-16T08:37:23.879Z,1445
2017-05-16T08:38:36.415Z,1445
2017-05-16T08:39:48.971Z,1465
2017-05-16T08:41:01.232Z,1530
2017-05-16T08:42:13.786Z,1555
2017-05-16T08:43:26.057Z,1535
2017-05-16T08:44:38.604Z,1560
2017-05-16T08:45:51.121Z,1680
2017-05-16T08:47:03.370Z,1755
2017-05-16T08:48:15.640Z,1665
2017-05-16T08:49:28.179Z,1590
2017-05-16T08:50:40.104Z,1530
2017-05-16T08:51:52.675Z,1515
2017-05-16T08:53:05.252Z,1520
2017-05-16T08:54:17.220Z,1550
2017-05-16T08:55:29.780Z,1565
2017-05-16T08:56:42.356Z,1540
2017-05-16T08:57:54.975Z,1490
2017-05-16T08:59:07.244Z,1465
2017-05-16T09:00:19.225Z,1465
2017-05-16T09:01:31.500Z,1475
2017-05-16T09:02:43.767Z,1490
2017-05-16T09:03:56.014Z,1510
2017-05-16T09:05:07.953Z,1480
2017-05-16T09:06:19.921Z,1435
2017-05-16T09:07:32.472Z,1380
2017-05-16T09:08:45.035Z,1340
2017-05-16T09:09:57.261Z,1340
2017-05-16T09:11:09.487Z,1380
2017-05-16T09:12:22.036Z,1400
2017-05-16T09:13:34.281Z,1395
2017-05-16T09:14:46.530Z,1360
2017-05-16T09:15:58.489Z,1345
2017-05-16T09:17:11.070Z,1315
2017-05-16T09:18:23.042Z,1300
2017-05-16T09:19:35.597Z,1290
2017-05-16T09:20:47.576Z,1280
2017-05-16T09:22:00.126Z,1280
2017-05-16T09:23:12.401Z,1295
2017-05-16T09:24:24.982Z,1305
2017-05-16T09:25:37.535Z,1320
2017-05-16T09:26:49.777Z,1320
2017-05-16T09:28:02.348Z,1305
2017-05-16T09:29:14.927Z,1275
2017-05-16T09:30:27.492Z,1255
2017-05-16T09:31:40.043Z,1235
2017-05-16T09:32:52.582Z,1250
2017-05-16T09:34:05.210Z,1395
2017-05-16T09:35:17.470Z,1345
2017-05-16T09:36:29.399Z,1290
2017-05-16T09:37:41.928Z,1295
2017-05-16T09:38:54.483Z,1325
2017-05-16T09:40:07.044Z,1420
2017-05-16T09:41:19.575Z,1390
2017-05-16T09:42:32.156Z,1420
2017-05-16T09:43:44.720Z,1460
2017-05-16T09:44:56.646Z,1555
2017-05-16T09:46:08.340Z,1445
2017-05-16T09:47:20.603Z,1445
2017-05-16T09:48:32.536Z,1475
2017-05-16T09:49:44.484Z,1440
2017-05-16T09:50:57.051Z,1405
2017-05-16T09:52:09.302Z,1400
2017-05-16T09:53:21.867Z,1380
2017-05-16T09:54:34.455Z,1370
2017-05-16T09:55:47.002Z,1340
2017-05-16T09:56:59.554Z,1285
2017-05-16T09:58:12.120Z,1240
2017-05-16T09:59:24.092Z,1155
2017-05-16T10:00:36.334Z,1030
2017-05-16T10:01:48.888Z,890
2017-05-16T10:03:01.151Z,795
2017-05-16T10:04:13.703Z,750
2017-05-16T10:05:25.629Z,755
2017-05-16T10:06:38.196Z,800
2017-05-16T10:07:50.435Z,865
2017-05-16T10:09:02.968Z,930
2017-05-16T10:10:15.525Z,985
2017-05-16T10:11:27.776Z,1040
2017-05-16T10:12:40.034Z,1090
2017-05-16T10:13:52.289Z,1140
2017-05-16T10:15:04.237Z,1190
2017-05-16T10:16:16.493Z,1240
2017-05-16T10:17:29.110Z,1280
2017-05-16T10:18:41.349Z,1335
2017-05-16T10:19:53.601Z,1375
2017-05-16T10:21:06.130Z,1435
2017-05-16T10:22:18.390Z,1435
2017-05-16T10:23:30.914Z,1425
2017-05-16T10:24:43.463Z,1410
2017-05-16T10:25:55.727Z,1385
2017-05-16T10:27:07.947Z,1365
2017-05-16T10:28:20.219Z,1360
2017-05-16T10:29:32.797Z,1355
2017-05-16T10:30:45.344Z,1315
2017-05-16T10:31:57.585Z,1255
2017-05-16T10:33:10.137Z,1255
2017-05-16T10:34:22.081Z,1310
2017-05-16T10:36:44.597Z,1480
2017-05-16T10:37:56.840Z,1555
2017-05-16T10:39:09.457Z,1620
2017-05-16T10:40:22.000Z,1490
2017-05-16T10:41:34.244Z,1460
2017-05-16T10:42:46.198Z,1380
2017-05-16T10:43:58.425Z,1220
2017-05-16T10:45:10.987Z,1105
2017-05-16T10:46:22.637Z,1070
2017-05-16T10:47:34.875Z,1070
2017-05-16T10:48:47.421Z,1095
2017-05-16T10:49:59.950Z,1130
2017-05-16T10:51:12.175Z,1140
2017-05-16T10:52:24.716Z,1130
2017-05-16T10:53:36.979Z,1165
2017-05-16T10:54:49.528Z,1230
2017-05-16T10:56:02.058Z,1255
2017-05-16T10:57:14.299Z,1260
2017-05-16T10:58:26.538Z,1245
2017-05-16T10:59:38.817Z,1295
2017-05-16T11:00:51.039Z,1410
2017-05-16T11:02:03.587Z,1460
2017-05-16T11:03:15.854Z,1570
2017-05-16T11:04:28.403Z,1545
2017-05-16T11:05:40.964Z,1365
2017-05-16T11:06:53.221Z,1360
2017-05-16T11:08:05.793Z,1400
2017-05-16T11:09:18.309Z,1475
2017-05-16T11:10:30.532Z,1535
2017-05-16T11:11:42.776Z,1440
2017-05-16T11:12:54.698Z,1440
2017-05-16T11:14:07.267Z,1480
2017-05-16T11:15:19.488Z,1515
2017-05-16T11:16:32.049Z,1550
2017-05-16T11:17:44.309Z,1450
2017-05-16T11:18:56.581Z,1375
2017-05-16T11:20:08.854Z,1465
2017-05-16T11:21:21.110Z,1645
2017-05-16T11:22:33.643Z,1810
2017-05-16T11:23:46.190Z,2020
2017-05-16T11:24:58.734Z,1575
2017-05-16T11:26:10.655Z,1400
2017-05-16T11:27:23.232Z,1310
2017-05-16T11:28:35.811Z,1270
2017-05-16T11:29:47.789Z,1195
2017-05-16T11:31:00.357Z,1110
2017-05-16T11:32:12.910Z,1065
2017-05-16T11:33:25.155Z,1050
2017-05-16T11:34:37.715Z,1050
2017-05-16T11:35:50.290Z,1040
2017-05-16T11:37:02.895Z,1075
2017-05-16T11:38:15.140Z,1115
2017-05-16T11:39:27.082Z,1095
2017-05-16T11:40:39.627Z,1090
2017-05-16T11:41:51.895Z,1120
2017-05-16T11:43:04.215Z,1175
2017-05-16T11:44:16.440Z,1265
2017-05-16T11:45:28.688Z,1380
2017-05-16T11:46:41.236Z,1395
2017-05-16T11:47:53.499Z,1390
2017-05-16T11:49:06.055Z,1475
2017-05-16T11:50:18.602Z,1610
2017-05-16T11:51:31.144Z,1850
2017-05-16T11:52:43.387Z,1655
2017-05-16T11:53:55.929Z,1620
2017-05-16T11:55:07.845Z,1625
2017-05-16T11:56:20.068Z,1465
2017-05-16T11:57:32.619Z,1520
2017-05-16T11:58:44.843Z,1500
2017-05-16T11:59:57.384Z,1395
2017-05-16T12:01:09.639Z,1215
2017-05-16T12:02:22.204Z,1135
2017-05-16T12:03:34.758Z,1090
2017-05-16T12:04:47.297Z,1060
2017-05-16T12:05:59.841Z,1040
2017-05-16T12:07:12.109Z,1075
2017-05-16T12:08:24.340Z,1165
2017-05-16T12:09:36.901Z,1220
2017-05-16T12:10:48.858Z,1265
2017-05-16T12:12:01.396Z,1280
2017-05-16T12:13:13.624Z,1275
2017-05-16T12:14:26.170Z,1235
2017-05-16T12:15:38.732Z,1175
2017-05-16T12:16:51.286Z,1160
2017-05-16T12:18:03.832Z,1125
2017-05-16T12:19:16.439Z,1095
2017-05-16T12:20:28.997Z,1095
2017-05-16T12:21:41.243Z,1120
2017-05-16T12:22:53.789Z,1145
2017-05-16T12:24:06.055Z,1175
2017-05-16T12:25:18.604Z,1155
2017-05-16T12:26:31.147Z,1115
2017-05-16T12:27:43.668Z,1100
2017-05-16T12:28:55.921Z,1090
2017-05-16T12:30:08.178Z,1080
2017-05-16T12:31:20.456Z,1090
2017-05-16T12:32:32.694Z,1095
2017-05-16T12:33:44.948Z,1085
2017-05-16T12:34:57.493Z,1050
2017-05-16T12:36:09.415Z,1010
2017-05-16T12:37:22.003Z,980
2017-05-16T12:38:34.549Z,965
2017-05-16T12:39:47.098Z,950
2017-05-16T12:40:59.673Z,935
2017-05-16T12:42:11.912Z,930
2017-05-16T12:43:24.465Z,945
2017-05-16T12:44:36.390Z,965
2017-05-16T12:45:48.937Z,980
2017-05-16T12:47:01.178Z,1015
2017-05-16T12:48:13.701Z,1130
2017-05-16T12:49:26.225Z,1215
2017-05-16T12:50:38.462Z,1200
2017-05-16T12:51:51.011Z,1175
2017-05-16T12:53:03.236Z,1195
2017-05-16T12:54:15.843Z,1190
2017-05-16T12:55:28.404Z,1185
2017-05-16T12:56:40.637Z,1195
2017-05-16T12:57:52.872Z,1175
2017-05-16T12:59:05.112Z,1135
2017-05-16T13:00:17.312Z,1115
2017-05-16T13:01:29.557Z,1100
2017-05-16T13:02:42.104Z,1085
2017-05-16T13:03:54.302Z,1070
2017-05-16T13:05:06.817Z,1070
2017-05-16T13:06:19.358Z,1085
2017-05-16T13:07:31.909Z,1090
2017-05-16T13:08:44.154Z,1065
2017-05-16T13:09:56.718Z,1065
2017-05-16T13:11:08.973Z,1065
2017-05-16T13:12:21.492Z,1060
2017-05-16T13:13:33.443Z,1085
2017-05-16T13:14:46.001Z,1105
2017-05-16T13:15:57.950Z,1145
2017-05-16T13:17:10.500Z,1220
2017-05-16T13:18:23.049Z,1280
2017-05-16T13:19:35.596Z,1350
2017-05-16T13:20:48.130Z,1355
2017-05-16T13:22:00.381Z,1355
2017-05-16T13:23:12.930Z,1385
2017-05-16T13:24:25.447Z,1420
2017-05-16T13:25:37.976Z,1285
2017-05-16T13:26:50.545Z,1215
2017-05-16T13:28:03.089Z,1205
2017-05-16T13:29:15.638Z,1150
2017-05-16T13:30:28.239Z,1105
2017-05-16T13:31:40.755Z,1075
2017-05-16T13:32:53.000Z,1135
2017-05-16T13:34:05.534Z,1050
2017-05-16T13:35:17.493Z,960
2017-05-16T13:36:30.054Z,925
2017-05-16T13:37:42.602Z,865
2017-05-16T13:38:55.403Z,850
2017-05-16T13:40:07.925Z,855
2017-05-16T13:41:19.844Z,870
2017-05-16T13:42:32.382Z,875
2017-05-16T13:43:44.935Z,885
2017-05-16T13:44:57.487Z,900
2017-05-16T13:46:09.749Z,905
2017-05-16T13:47:21.979Z,905
2017-05-16T13:48:34.227Z,915
2017-05-16T13:49:46.782Z,920
2017-05-16T13:50:59.316Z,910
2017-05-16T13:52:11.541Z,895
2017-05-16T13:53:24.077Z,880
2017-05-16T13:54:36.327Z,860
2017-05-16T13:55:48.591Z,845
2017-05-16T13:57:01.168Z,835
2017-05-16T13:58:13.415Z,845
2017-05-16T13:59:25.961Z,860
2017-05-16T14:00:38.499Z,895
2017-05-16T14:01:51.054Z,935
2017-05-16T14:03:03.616Z,1010
2017-05-16T14:04:16.169Z,1115
2017-05-16T14:05:28.419Z,1200
2017-05-16T14:06:40.678Z,1285
2017-05-16T14:07:52.932Z,1405
2017-05-16T14:09:05.150Z,1620
2017-05-16T14:10:17.391Z,1490
2017-05-16T14:11:29.946Z,1275
2017-05-16T14:12:42.513Z,1180
2017-05-16T14:13:55.063Z,1120
2017-05-16T14:15:07.305Z,1075
2017-05-16T14:16:19.867Z,1060
2017-05-16T14:17:32.400Z,1040
2017-05-16T14:18:44.945Z,1005
2017-05-16T14:19:57.190Z,980
2017-05-16T14:21:09.739Z,940
2017-05-16T14:22:22.259Z,905
2017-05-16T14:23:34.823Z,860
2017-05-16T14:24:47.350Z,830
2017-05-16T14:25:59.892Z,805
2017-05-16T14:27:12.106Z,810
2017-05-16T14:28:24.335Z,825
2017-05-16T14:29:36.558Z,845
2017-05-16T14:30:48.777Z,835
2017-05-16T14:32:01.323Z,835
2017-05-16T14:33:13.550Z,820
2017-05-16T14:34:25.814Z,815
2017-05-16T14:35:38.052Z,795
2017-05-16T14:36:50.610Z,745
2017-05-16T14:38:03.158Z,705
2017-05-16T14:39:15.425Z,680
2017-05-16T14:40:27.669Z,680
2017-05-16T14:41:40.232Z,685
2017-05-16T14:42:52.478Z,700
2017-05-16T14:44:05.008Z,710
2017-05-16T14:45:17.231Z,720
2017-05-16T14:46:29.452Z,725
2017-05-16T14:47:42.014Z,720
2017-05-16T14:48:54.582Z,725
2017-05-16T14:50:07.127Z,755
2017-05-16T14:51:19.659Z,835
2017-05-16T14:52:32.183Z,915
2017-05-16T14:53:44.741Z,915
2017-05-16T14:54:57.332Z,875
2017-05-16T14:56:09.607Z,875
2017-05-16T14:57:22.136Z,910
2017-05-16T14:58:34.061Z,945
2017-05-16T14:59:46.306Z,970
2017-05-16T15:00:58.850Z,960
2017-05-16T15:02:11.413Z,950
2017-05-16T15:03:23.984Z,940
2017-05-16T15:04:36.512Z,910
2017-05-16T15:05:48.750Z,870
2017-05-16T15:07:01.028Z,845
2017-05-16T15:08:13.269Z,830
2017-05-16T15:09:25.523Z,825
2017-05-16T15:10:38.059Z,830
2017-05-16T15:11:50.314Z,830
2017-05-16T15:13:02.261Z,810
2017-05-16T15:14:13.911Z,795
2017-05-16T15:15:26.453Z,805
2017-05-16T15:16:38.377Z,840
2017-05-16T15:17:50.592Z,865
2017-05-16T15:19:02.819Z,850
2017-05-16T15:20:14.780Z,840
2017-05-16T15:21:27.331Z,855
2017-05-16T15:22:39.875Z,855
2017-05-16T15:23:52.117Z,835
2017-05-16T15:25:04.672Z,815
2017-05-16T15:26:16.906Z,800
2017-05-16T15:27:28.880Z,785
2017-05-16T15:28:41.108Z,750
2017-05-16T15:29:53.370Z,700
2017-05-16T15:31:05.901Z,650
2017-05-16T15:32:18.151Z,590
2017-05-16T15:33:30.389Z,545
2017-05-16T15:34:42.928Z,505
2017-05-16T15:35:55.476Z,485
2017-05-16T15:37:07.704Z,480
2017-05-16T15:38:19.949Z,475
2017-05-16T15:39:32.496Z,465
2017-05-16T15:40:44.721Z,435
2017-05-16T15:41:57.288Z,400
2017-05-16T15:43:09.810Z,375
2017-05-16T15:44:22.370Z,360
2017-05-16T15:45:34.923Z,345
2017-05-16T15:46:47.464Z,335
2017-05-16T15:48:00.016Z,315
2017-05-16T15:49:12.538Z,300
2017-05-16T15:50:24.481Z,285
2017-05-16T15:51:36.749Z,280
2017-05-16T15:52:49.294Z,285
2017-05-16T15:54:01.862Z,300
2017-05-16T15:55:14.446Z,315
2017-05-16T15:56:26.682Z,325
2017-05-16T15:57:39.211Z,335
2017-05-16T15:58:51.432Z,335
2017-05-16T16:00:03.715Z,335
2017-05-16T16:01:15.687Z,335
2017-05-16T16:02:28.220Z,340
2017-05-16T16:03:40.764Z,365
2017-05-16T16:04:53.313Z,405
2017-05-16T16:06:05.874Z,455
2017-05-16T16:07:18.419Z,505
2017-05-16T16:08:30.362Z,550
2017-05-16T16:09:42.919Z,595
2017-05-16T16:10:55.137Z,625
2017-05-16T16:12:07.684Z,655
2017-05-16T16:13:19.929Z,690
2017-05-16T16:14:32.196Z,755
2017-05-16T16:15:44.767Z,795
2017-05-16T16:16:56.997Z,825
2017-05-16T16:18:09.237Z,830
2017-05-16T16:19:21.478Z,815
2017-05-16T16:20:33.733Z,785
2017-05-16T16:21:45.929Z,730
2017-05-16T16:22:58.442Z,685
2017-05-16T16:24:10.360Z,640
2017-05-16T16:25:22.593Z,615
2017-05-16T16:26:35.130Z,615
2017-05-16T16:27:47.661Z,610
2017-05-16T16:29:00.218Z,615
2017-05-16T16:30:12.474Z,610
2017-05-16T16:31:24.718Z,610
2017-05-16T16:32:36.939Z,600
2017-05-16T16:33:49.463Z,585
2017-05-16T16:35:02.032Z,575
2017-05-16T16:36:14.569Z,565
2017-05-16T16:37:27.115Z,560
2017-05-16T16:38:39.694Z,540